createdAt,value
2019-03-25T00:02:46.655Z,7.20
2019-03-25T00:05:50.467Z,7.10
2019-03-25T00:09:04.831Z,7.30
2019-03-25T00:12:00.277Z,7.20
2019-03-25T00:15:06.760Z,7.30
2019-03-25T00:18:10.622Z,7.40
2019-03-25T00:21:14.804Z,7.20
2019-03-25T00:24:18.663Z,7.10
2019-03-25T00:27:22.663Z,7.00
2019-03-25T00:30:26.527Z,7.00
2019-03-25T00:33:30.364Z,7.00
2019-03-25T00:36:34.223Z,6.60
2019-03-25T00:39:38.111Z,6.40
2019-03-25T00:42:42.016Z,6.40
2019-03-25T00:45:45.870Z,6.60
2019-03-25T00:48:49.726Z,6.80
2019-03-25T00:51:53.617Z,6.90
2019-03-25T00:54:57.461Z,7.00
2019-03-25T00:58:01.337Z,7.10
2019-03-25T01:01:05.160Z,7.20
2019-03-25T01:04:09.403Z,7.20
2019-03-25T01:07:13.311Z,7.20
2019-03-25T01:10:17.173Z,7.30
2019-03-25T01:13:21.043Z,7.30
2019-03-25T01:16:24.861Z,7.20
2019-03-25T01:19:28.721Z,7.20
2019-03-25T01:22:32.561Z,7.20
2019-03-25T01:25:36.431Z,7.30
2019-03-25T01:28:40.267Z,7.30
2019-03-25T01:31:44.145Z,7.30
2019-03-25T01:34:48.069Z,7.30
2019-03-25T01:37:51.952Z,7.00
2019-03-25T01:40:55.811Z,6.90
2019-03-25T01:43:59.651Z,7.10
2019-03-25T01:47:03.522Z,7.20
2019-03-25T01:50:07.756Z,7.20
2019-03-25T01:53:11.621Z,7.20
2019-03-25T01:56:15.460Z,7.30
2019-03-25T01:59:19.321Z,7.20
2019-03-25T02:02:23.983Z,7.20
2019-03-25T02:05:27.855Z,7.10
2019-03-25T02:08:31.731Z,7.10
2019-03-25T02:11:35.571Z,7.20
2019-03-25T02:14:39.447Z,7.10
2019-03-25T02:17:43.281Z,7.10
2019-03-25T02:20:47.172Z,7.00
2019-03-25T02:23:51.011Z,7.10
2019-03-25T02:26:54.887Z,7.20
2019-03-25T02:29:58.731Z,7.20
2019-03-25T02:33:02.605Z,7.20
2019-03-25T02:36:06.464Z,6.90
2019-03-25T02:39:10.317Z,7.00
2019-03-25T02:42:14.194Z,6.90
2019-03-25T02:45:18.043Z,7.00
2019-03-25T02:48:21.901Z,7.00
2019-03-25T02:51:25.740Z,7.00
2019-03-25T02:54:29.607Z,7.00
2019-03-25T02:57:33.447Z,7.00
2019-03-25T03:00:38.868Z,6.90
2019-03-25T03:03:42.812Z,6.90
2019-03-25T03:06:46.662Z,7.00
2019-03-25T03:09:50.510Z,7.00
2019-03-25T03:12:54.332Z,7.10
2019-03-25T03:15:58.512Z,7.00
2019-03-25T03:19:02.333Z,6.90
2019-03-25T03:22:06.183Z,7.00
2019-03-25T03:25:11.486Z,7.00
2019-03-25T03:28:15.321Z,7.00
2019-03-25T03:31:19.178Z,7.10
2019-03-25T03:34:23.068Z,7.00
2019-03-25T03:37:27.038Z,7.10
2019-03-25T03:40:30.887Z,7.00
2019-03-25T03:43:34.838Z,7.00
2019-03-25T03:46:38.682Z,7.00
2019-03-25T03:49:42.577Z,7.10
2019-03-25T03:52:46.401Z,7.10
2019-03-25T03:55:51.405Z,7.00
2019-03-25T03:58:55.496Z,7.00
2019-03-25T04:01:59.378Z,7.00
2019-03-25T04:05:03.216Z,7.00
2019-03-25T04:08:07.041Z,7.20
2019-03-25T04:11:10.912Z,7.20
2019-03-25T04:14:14.751Z,6.80
2019-03-25T04:17:18.627Z,6.50
2019-03-25T04:20:22.451Z,6.60
2019-03-25T04:23:26.315Z,6.70
2019-03-25T04:26:30.211Z,6.70
2019-03-25T04:29:34.051Z,6.60
2019-03-25T04:32:37.951Z,6.80
2019-03-25T04:35:41.761Z,6.80
2019-03-25T04:38:45.632Z,6.90
2019-03-25T04:41:49.501Z,6.90
2019-03-25T04:44:53.354Z,6.90
2019-03-25T04:47:57.406Z,6.90
2019-03-25T04:51:01.267Z,6.70
2019-03-25T04:54:05.320Z,6.90
2019-03-25T04:57:09.187Z,7.00
2019-03-25T05:00:13.572Z,7.10
2019-03-25T05:03:17.416Z,7.00
2019-03-25T05:06:21.306Z,7.10
2019-03-25T05:09:25.123Z,7.20
2019-03-25T05:12:28.982Z,7.10
2019-03-25T05:15:32.807Z,7.20
2019-03-25T05:18:36.660Z,7.30
2019-03-25T05:21:40.504Z,7.20
2019-03-25T05:24:44.381Z,7.10
2019-03-25T05:27:48.561Z,6.80
2019-03-25T05:30:52.380Z,6.60
2019-03-25T05:33:56.241Z,6.50
2019-03-25T05:37:00.094Z,6.40
2019-03-25T05:40:04.086Z,6.40
2019-03-25T05:43:07.927Z,6.40
2019-03-25T05:46:11.807Z,6.40
2019-03-25T05:49:15.637Z,6.20
2019-03-25T05:52:20.800Z,6.30
2019-03-25T05:55:24.707Z,6.50
2019-03-25T05:58:28.541Z,6.40
2019-03-25T06:01:32.531Z,6.70
2019-03-25T06:04:36.362Z,6.90
2019-03-25T06:07:40.210Z,6.80
2019-03-25T06:10:44.051Z,6.80
2019-03-25T06:13:47.946Z,6.80
2019-03-25T06:16:51.788Z,6.80
2019-03-25T06:19:55.660Z,6.80
2019-03-25T06:22:59.628Z,6.70
2019-03-25T06:26:03.479Z,6.80
2019-03-25T06:29:07.342Z,6.90
2019-03-25T06:32:11.192Z,7.20
2019-03-25T06:35:15.081Z,7.30
2019-03-25T06:38:18.930Z,7.40
2019-03-25T06:41:22.798Z,7.50
2019-03-25T06:44:26.636Z,7.70
2019-03-25T06:47:30.491Z,7.80
2019-03-25T06:50:34.314Z,7.80
2019-03-25T06:53:38.209Z,7.80
2019-03-25T06:56:42.032Z,8.00
2019-03-25T06:59:45.880Z,8.00
2019-03-25T07:02:49.730Z,8.30
2019-03-25T07:05:53.564Z,8.10
2019-03-25T07:08:57.419Z,8.20
2019-03-25T07:12:01.250Z,8.30
2019-03-25T07:15:07.857Z,8.10
2019-03-25T07:18:11.718Z,7.90
2019-03-25T07:21:15.549Z,8.00
2019-03-25T07:24:19.413Z,8.20
2019-03-25T07:27:24.349Z,8.60
2019-03-25T07:30:28.223Z,9.60
2019-03-25T07:33:32.107Z,10.20
2019-03-25T07:36:36.032Z,10.90
2019-03-25T07:39:39.878Z,12.60
2019-03-25T07:42:44.755Z,15.30
2019-03-25T07:45:48.582Z,16.80
2019-03-25T07:48:52.449Z,15.50
2019-03-25T07:51:56.301Z,13.20
2019-03-25T07:55:00.180Z,11.20
2019-03-25T07:58:04.103Z,9.80
2019-03-25T08:01:07.972Z,9.50
2019-03-25T08:04:11.879Z,9.10
2019-03-25T08:07:15.672Z,8.90
2019-03-25T08:10:31.218Z,8.20
2019-03-25T08:13:35.021Z,8.10
2019-03-25T08:16:38.887Z,7.90
2019-03-25T08:19:43.342Z,7.80
2019-03-25T08:22:47.166Z,7.70
2019-03-25T08:25:51.114Z,7.60
2019-03-25T08:28:54.943Z,7.30
2019-03-25T08:31:59.104Z,7.70
2019-03-25T08:35:03.130Z,7.90
2019-03-25T08:38:07.005Z,8.00
2019-03-25T08:41:10.858Z,8.60
2019-03-25T08:44:14.757Z,9.00
2019-03-25T08:47:18.596Z,9.30
2019-03-25T08:50:22.696Z,9.50
2019-03-25T08:53:26.579Z,9.90
2019-03-25T08:56:30.403Z,10.30
2019-03-25T08:59:34.310Z,11.10
2019-03-25T09:02:38.197Z,10.50
2019-03-25T09:05:42.195Z,11.10
2019-03-25T09:08:46.391Z,10.80
2019-03-25T09:11:51.617Z,11.60
2019-03-25T09:14:55.871Z,11.90
2019-03-25T09:17:59.753Z,11.60
2019-03-25T09:21:03.605Z,11.40
2019-03-25T09:24:07.489Z,11.60
2019-03-25T09:27:11.389Z,11.70
2019-03-25T09:30:18.175Z,12.00
2019-03-25T09:33:22.455Z,12.00
2019-03-25T09:36:26.501Z,12.00
2019-03-25T09:39:30.384Z,12.50
2019-03-25T09:42:34.266Z,13.90
2019-03-25T09:45:38.087Z,14.40
2019-03-25T09:48:42.071Z,13.90
2019-03-25T09:51:45.962Z,14.30
2019-03-25T09:54:49.822Z,13.40
2019-03-25T09:57:53.655Z,13.00
2019-03-25T10:00:57.538Z,12.50
2019-03-25T10:04:01.445Z,12.20
2019-03-25T10:07:05.274Z,11.70
2019-03-25T10:10:09.622Z,11.10
2019-03-25T10:13:13.431Z,10.90
2019-03-25T10:16:17.321Z,10.70
2019-03-25T10:19:21.177Z,11.00
2019-03-25T10:22:25.709Z,12.50
2019-03-25T10:25:29.721Z,12.10
2019-03-25T10:28:33.616Z,11.90
2019-03-25T10:31:37.621Z,11.40
2019-03-25T10:34:41.494Z,11.50
2019-03-25T10:37:45.740Z,12.50
2019-03-25T10:40:49.619Z,14.70
2019-03-25T10:43:53.508Z,17.60
2019-03-25T10:46:57.367Z,19.30
2019-03-25T10:50:01.223Z,18.40
2019-03-25T10:53:05.243Z,18.20
2019-03-25T10:56:09.132Z,19.30
2019-03-25T10:59:12.970Z,18.40
2019-03-25T11:02:16.841Z,16.30
2019-03-25T11:05:20.671Z,15.20
2019-03-25T11:08:26.086Z,14.70
2019-03-25T11:11:29.995Z,14.70
2019-03-25T11:14:33.855Z,14.80
2019-03-25T11:17:37.928Z,14.30
2019-03-25T11:20:41.761Z,14.20
2019-03-25T11:23:45.621Z,14.60
2019-03-25T11:26:49.461Z,14.10
2019-03-25T11:29:53.336Z,13.90
2019-03-25T11:32:57.171Z,13.50
2019-03-25T11:36:02.729Z,13.40
2019-03-25T11:39:08.544Z,13.30
2019-03-25T11:42:12.399Z,13.30
2019-03-25T11:45:16.407Z,13.10
2019-03-25T11:48:20.363Z,12.60
2019-03-25T11:51:24.233Z,12.20
2019-03-25T11:54:28.059Z,11.70
2019-03-25T11:57:31.939Z,11.40
2019-03-25T12:00:35.769Z,10.90
2019-03-25T12:03:39.632Z,10.80
2019-03-25T12:06:43.801Z,9.90
2019-03-25T12:09:47.906Z,9.40
2019-03-25T12:12:53.094Z,8.40
2019-03-25T12:15:56.921Z,7.70
2019-03-25T12:19:00.809Z,7.60
2019-03-25T12:22:04.719Z,7.70
2019-03-25T12:25:08.575Z,8.10
2019-03-25T12:28:13.705Z,8.20
2019-03-25T12:31:17.562Z,8.90
2019-03-25T12:34:21.512Z,9.20
2019-03-25T12:37:26.384Z,8.90
2019-03-25T12:40:30.377Z,9.40
2019-03-25T12:43:34.187Z,10.40
2019-03-25T12:46:38.078Z,11.00
2019-03-25T12:49:41.931Z,11.00
2019-03-25T12:52:45.850Z,11.30
2019-03-25T12:55:49.693Z,11.20
2019-03-25T12:58:53.585Z,11.10
2019-03-25T13:01:57.752Z,11.10
2019-03-25T13:05:01.685Z,11.10
2019-03-25T13:08:05.821Z,10.60
2019-03-25T13:11:09.697Z,10.10
2019-03-25T13:14:13.602Z,9.90
2019-03-25T13:17:17.766Z,9.80
2019-03-25T13:20:22.752Z,9.70
2019-03-25T13:23:26.991Z,9.40
2019-03-25T13:26:31.632Z,9.30
2019-03-25T13:29:35.511Z,9.30
2019-03-25T13:32:39.355Z,9.20
2019-03-25T13:35:43.238Z,8.90
2019-03-25T13:38:47.081Z,8.70
2019-03-25T13:41:50.946Z,8.40
2019-03-25T13:44:57.612Z,8.20
2019-03-25T13:48:00.591Z,7.70
2019-03-25T13:51:04.434Z,7.10
2019-03-25T13:54:08.355Z,6.90
2019-03-25T13:57:12.616Z,6.50
2019-03-25T14:00:18.448Z,6.30
2019-03-25T14:03:22.369Z,5.80
2019-03-25T14:06:26.201Z,5.60
2019-03-25T14:09:30.093Z,5.30
2019-03-25T14:12:33.912Z,5.00
2019-03-25T14:15:37.769Z,4.90
2019-03-25T14:18:41.594Z,4.80
2019-03-25T14:21:45.476Z,4.90
2019-03-25T14:24:49.354Z,5.10
2019-03-25T14:27:53.201Z,5.00
2019-03-25T14:30:57.072Z,5.10
2019-03-25T14:34:00.921Z,5.00
2019-03-25T14:37:04.902Z,4.80
2019-03-25T14:40:09.548Z,4.80
2019-03-25T14:43:13.411Z,4.80
2019-03-25T14:46:17.247Z,4.60
2019-03-25T14:49:21.131Z,4.70
2019-03-25T14:52:25.822Z,4.90
2019-03-25T14:55:29.746Z,5.00
2019-03-25T14:58:33.651Z,5.20
2019-03-25T15:01:37.481Z,5.30
2019-03-25T15:04:41.361Z,5.20
2019-03-25T15:07:45.170Z,5.20
2019-03-25T15:10:53.542Z,5.20
2019-03-25T15:13:54.632Z,5.20
2019-03-25T15:16:58.512Z,5.20
2019-03-25T15:20:02.346Z,5.50
2019-03-25T15:23:06.224Z,5.40
2019-03-25T15:26:10.122Z,5.80
2019-03-25T15:29:13.974Z,6.00
2019-03-25T15:32:18.721Z,6.20
2019-03-25T15:35:22.903Z,6.20
2019-03-25T15:38:27.078Z,6.30
2019-03-25T15:41:30.970Z,6.50
2019-03-25T15:44:34.866Z,6.40
2019-03-25T15:47:39.423Z,6.10
2019-03-25T15:50:43.424Z,5.90
2019-03-25T15:53:47.291Z,5.70
2019-03-25T15:56:51.147Z,5.60
2019-03-25T15:59:55.158Z,5.50
2019-03-25T16:02:59.231Z,5.40
2019-03-25T16:06:03.210Z,5.40
2019-03-25T16:09:08.596Z,5.50
2019-03-25T16:12:12.617Z,5.60
2019-03-25T16:15:34.221Z,5.50
2019-03-25T16:18:39.373Z,5.50
2019-03-25T16:21:43.182Z,5.60
2019-03-25T16:24:47.041Z,5.70
2019-03-25T16:27:52.338Z,5.70
2019-03-25T16:30:58.918Z,5.60
2019-03-25T16:34:01.701Z,5.70
2019-03-25T16:37:05.588Z,5.80
2019-03-25T16:40:09.558Z,5.90
2019-03-25T16:43:13.467Z,6.10
2019-03-25T16:46:17.402Z,6.20
2019-03-25T16:49:21.305Z,6.20
2019-03-25T16:52:26.295Z,6.10
2019-03-25T16:55:30.192Z,6.10
2019-03-25T16:58:34.151Z,6.00
2019-03-25T17:01:37.986Z,5.90
2019-03-25T17:04:42.017Z,5.80
2019-03-25T17:07:45.859Z,5.60
2019-03-25T17:10:49.721Z,5.50
2019-03-25T17:13:53.605Z,5.50
2019-03-25T17:16:57.498Z,5.50
2019-03-25T17:20:01.307Z,5.50
2019-03-25T17:23:05.452Z,5.60
2019-03-25T17:26:09.290Z,5.70
2019-03-25T17:29:14.668Z,5.70
2019-03-25T17:32:18.573Z,5.80
2019-03-25T17:35:22.391Z,5.70
2019-03-25T17:38:26.421Z,5.70
2019-03-25T17:41:30.272Z,5.70
2019-03-25T17:44:34.291Z,5.60
2019-03-25T17:47:38.435Z,5.80
2019-03-25T17:50:42.410Z,5.70
2019-03-25T17:53:46.297Z,5.70
2019-03-25T17:56:50.542Z,5.70
2019-03-25T17:59:54.432Z,5.70
2019-03-25T18:02:58.276Z,5.60
2019-03-25T18:06:02.127Z,5.70
2019-03-25T18:09:10.081Z,5.70
2019-03-25T18:12:13.924Z,5.70
2019-03-25T18:15:18.000Z,5.70
2019-03-25T18:18:21.875Z,5.70
2019-03-25T18:21:25.966Z,5.70
2019-03-25T18:24:29.890Z,5.70
2019-03-25T18:27:33.723Z,5.60
2019-03-25T18:30:37.791Z,5.60
2019-03-25T18:33:41.669Z,5.50
2019-03-25T18:36:45.542Z,5.40
2019-03-25T18:39:49.421Z,5.50
2019-03-25T18:42:53.467Z,5.50
2019-03-25T18:45:58.448Z,5.40
2019-03-25T18:49:02.389Z,5.40
2019-03-25T18:52:06.486Z,5.30
2019-03-25T18:55:10.498Z,5.30
2019-03-25T18:58:14.406Z,5.20
2019-03-25T19:01:18.281Z,5.10
2019-03-25T19:04:23.879Z,5.10
2019-03-25T19:07:27.790Z,5.20
2019-03-25T19:10:32.065Z,5.10
2019-03-25T19:13:35.989Z,5.10
2019-03-25T19:16:39.960Z,5.10
2019-03-25T19:19:43.916Z,5.20
2019-03-25T19:22:48.300Z,5.10
2019-03-25T19:25:52.301Z,5.10
2019-03-25T19:28:56.296Z,5.00
2019-03-25T19:32:06.617Z,5.10
2019-03-25T19:35:07.514Z,5.20
2019-03-25T19:38:11.478Z,5.10
2019-03-25T19:41:15.642Z,5.10
2019-03-25T19:44:19.740Z,5.10
2019-03-25T19:47:30.421Z,5.10
2019-03-25T19:50:34.408Z,5.10
2019-03-25T19:53:38.425Z,5.00
2019-03-25T19:56:42.666Z,5.00
2019-03-25T19:59:46.650Z,5.00
2019-03-25T20:02:50.555Z,5.00
2019-03-25T20:05:54.596Z,5.10
2019-03-25T20:08:58.507Z,5.10
2019-03-25T20:12:02.517Z,5.00
2019-03-25T20:15:09.592Z,5.00
2019-03-25T20:18:13.610Z,5.00
2019-03-25T20:21:17.498Z,5.00
2019-03-25T20:24:21.512Z,5.00
2019-03-25T20:27:25.942Z,5.00
2019-03-25T20:30:30.028Z,5.00
2019-03-25T20:33:34.579Z,4.90
2019-03-25T20:36:38.632Z,5.00
2019-03-25T20:39:42.667Z,5.10
2019-03-25T20:42:46.630Z,5.10
2019-03-25T20:45:50.623Z,4.90
2019-03-25T20:48:54.586Z,5.00
2019-03-25T20:51:58.543Z,5.00
2019-03-25T20:55:02.481Z,5.00
2019-03-25T21:01:22.408Z,4.90
2019-03-25T21:04:26.311Z,4.90
2019-03-25T21:07:30.326Z,4.90
2019-03-25T21:10:34.293Z,4.90
2019-03-25T21:13:38.304Z,4.90
2019-03-25T21:16:42.139Z,4.90
2019-03-25T21:19:46.161Z,5.00
2019-03-25T21:22:50.101Z,4.90
2019-03-25T21:25:53.960Z,4.90
2019-03-25T21:28:57.880Z,4.80
2019-03-25T21:32:01.877Z,4.90
2019-03-25T21:35:07.237Z,4.90
2019-03-25T21:38:11.158Z,4.90
2019-03-25T21:41:15.033Z,4.80
2019-03-25T21:44:18.914Z,4.70
2019-03-25T21:47:22.727Z,4.60
2019-03-25T21:50:26.781Z,4.70
2019-03-25T21:53:30.777Z,4.80
2019-03-25T21:56:34.740Z,4.80
2019-03-25T21:59:38.752Z,4.60
2019-03-25T22:02:42.582Z,4.60
2019-03-25T22:05:46.412Z,4.70
2019-03-25T22:08:50.343Z,4.60
2019-03-25T22:11:54.187Z,4.50
2019-03-25T22:14:58.090Z,4.50
2019-03-25T22:18:01.950Z,4.60
2019-03-25T22:21:05.827Z,4.60
2019-03-25T22:24:09.648Z,4.60
2019-03-25T22:27:13.581Z,4.50
2019-03-25T22:30:17.656Z,4.60
2019-03-25T22:33:26.170Z,4.60
2019-03-25T22:36:27.001Z,4.60
2019-03-25T22:39:30.928Z,4.50
2019-03-25T22:42:34.766Z,4.50
2019-03-25T22:45:38.613Z,4.50
2019-03-25T22:48:42.451Z,4.60
2019-03-25T22:51:46.347Z,4.60
2019-03-25T22:54:50.184Z,4.30
2019-03-25T22:57:54.076Z,4.40
2019-03-25T23:00:58.800Z,4.30
2019-03-25T23:04:02.683Z,4.30
2019-03-25T23:07:06.525Z,4.30
2019-03-25T23:10:10.375Z,4.30
2019-03-25T23:13:14.251Z,4.40
2019-03-25T23:16:18.114Z,4.30
2019-03-25T23:19:21.981Z,4.30
2019-03-25T23:22:26.781Z,4.30
2019-03-25T23:25:30.625Z,4.30
2019-03-25T23:28:34.476Z,4.30
2019-03-25T23:31:38.308Z,4.20
2019-03-25T23:34:42.197Z,4.30
2019-03-25T23:37:46.111Z,4.20
2019-03-25T23:40:49.986Z,4.20
2019-03-25T23:43:53.806Z,4.20
2019-03-25T23:46:57.685Z,4.10
2019-03-25T23:50:01.527Z,4.20
2019-03-25T23:53:05.378Z,4.20
2019-03-25T23:56:09.221Z,4.30
2019-03-25T23:59:13.271Z,4.20
